sensor_id;sensor_type;location;lat;lon;timestamp;pressure;altitude;pressure_sealevel;temperature;humidity
61786;BME280;47692;53.714;11.372;2023-04-12T00:01:18;100550.59;;;2.22;100.00
61786;BME280;47692;53.714;11.372;2023-04-12T00:03:43;100551.47;;;2.21;100.00
61786;BME280;47692;53.714;11.372;2023-04-12T00:06:15;100551.50;;;2.24;100.00
61786;BME280;47692;53.714;11.372;2023-04-12T00:08:41;100550.66;;;2.29;100.00
61786;BME280;47692;53.714;11.372;2023-04-12T00:11:06;100551.53;;;2.28;100.00
61786;BME280;47692;53.714;11.372;2023-04-12T00:13:32;100541.28;;;2.37;100.00
61786;BME280;47692;53.714;11.372;2023-04-12T00:15:57;100544.72;;;2.36;100.00
61786;BME280;47692;53.714;11.372;2023-04-12T00:18:23;100537.81;;;2.32;100.00
61786;BME280;47692;53.714;11.372;2023-04-12T00:20:50;100531.78;;;2.30;100.00
61786;BME280;47692;53.714;11.372;2023-04-12T00:23:16;100530.88;;;2.24;100.00
61786;BME280;47692;53.714;11.372;2023-04-12T00:25:43;100509.34;;;2.16;100.00
61786;BME280;47692;53.714;11.372;2023-04-12T00:28:08;100507.69;;;2.21;100.00
61786;BME280;47692;53.714;11.372;2023-04-12T00:30:33;100506.00;;;2.30;100.00
61786;BME280;47692;53.714;11.372;2023-04-12T00:32:59;100504.38;;;2.36;100.00
61786;BME280;47692;53.714;11.372;2023-04-12T00:35:24;100497.53;;;2.46;100.00
61786;BME280;47692;53.714;11.372;2023-04-12T00:37:50;100496.72;;;2.49;100.00
61786;BME280;47692;53.714;11.372;2023-04-12T00:40:15;100492.44;;;2.51;100.00
61786;BME280;47692;53.714;11.372;2023-04-12T00:42:40;100494.19;;;2.55;100.00
61786;BME280;47692;53.714;11.372;2023-04-12T00:45:06;100497.63;;;2.54;100.00
61786;BME280;47692;53.714;11.372;2023-04-12T00:47:35;100503.56;;;2.50;100.00
61786;BME280;47692;53.714;11.372;2023-04-12T00:50:03;100503.50;;;2.37;100.00
61786;BME280;47692;53.714;11.372;2023-04-12T00:52:29;100497.44;;;2.31;100.00
61786;BME280;47692;53.714;11.372;2023-04-12T00:55:04;100505.16;;;2.28;100.00
61786;BME280;47692;53.714;11.372;2023-04-12T00:57:38;100495.75;;;2.33;100.00
61786;BME280;47692;53.714;11.372;2023-04-12T01:00:05;100502.59;;;2.31;100.00
61786;BME280;47692;53.714;11.372;2023-04-12T01:02:32;100496.59;;;2.35;100.00
61786;BME280;47692;53.714;11.372;2023-04-12T01:04:58;100494.88;;;2.31;100.00
61786;BME280;47692;53.714;11.372;2023-04-12T01:10:06;100490.56;;;2.31;100.00
61786;BME280;47692;53.714;11.372;2023-04-12T01:12:52;100485.34;;;2.23;100.00
61786;BME280;47692;53.714;11.372;2023-04-12T01:15:18;100488.81;;;2.29;100.00
61786;BME280;47692;53.714;11.372;2023-04-12T01:17:51;100488.03;;;2.33;100.00
61786;BME280;47692;53.714;11.372;2023-04-12T01:20:24;100486.25;;;2.25;100.00
61786;BME280;47692;53.714;11.372;2023-04-12T01:28:34;100476.78;;;2.26;100.00
61786;BME280;47692;53.714;11.372;2023-04-12T01:31:02;100475.88;;;2.19;100.00
61786;BME280;47692;53.714;11.372;2023-04-12T01:33:29;100470.75;;;2.22;100.00
61786;BME280;47692;53.714;11.372;2023-04-12T01:36:06;100470.75;;;2.22;100.00
61786;BME280;47692;53.714;11.372;2023-04-12T01:38:33;100469.06;;;2.21;100.00
61786;BME280;47692;53.714;11.372;2023-04-12T01:40:59;100458.75;;;2.21;100.00
61786;BME280;47692;53.714;11.372;2023-04-12T01:43:24;100454.50;;;2.30;100.00
61786;BME280;47692;53.714;11.372;2023-04-12T01:45:49;100457.91;;;2.25;100.00
61786;BME280;47692;53.714;11.372;2023-04-12T01:48:15;100463.91;;;2.26;100.00
61786;BME280;47692;53.714;11.372;2023-04-12T01:53:34;100450.13;;;2.22;100.00
61786;BME280;47692;53.714;11.372;2023-04-12T01:56:07;100459.50;;;2.11;100.00
61786;BME280;47692;53.714;11.372;2023-04-12T01:58:33;100464.59;;;2.00;100.00
61786;BME280;47692;53.714;11.372;2023-04-12T02:01:00;100451.72;;;2.02;100.00
61786;BME280;47692;53.714;11.372;2023-04-12T02:03:27;100457.66;;;1.96;100.00
61786;BME280;47692;53.714;11.372;2023-04-12T02:05:56;100452.53;;;1.96;100.00
61786;BME280;47692;53.714;11.372;2023-04-12T02:08:22;100443.09;;;1.98;100.00
61786;BME280;47692;53.714;11.372;2023-04-12T02:10:48;100443.09;;;1.97;100.00
61786;BME280;47692;53.714;11.372;2023-04-12T02:13:13;100437.13;;;1.99;100.00
61786;BME280;47692;53.714;11.372;2023-04-12T02:15:38;100427.66;;;2.00;100.00
61786;BME280;47692;53.714;11.372;2023-04-12T02:18:04;100436.28;;;2.02;100.00
61786;BME280;47692;53.714;11.372;2023-04-12T02:20:30;100432.75;;;1.90;100.00
61786;BME280;47692;53.714;11.372;2023-04-12T02:22:55;100425.81;;;1.86;100.00
61786;BME280;47692;53.714;11.372;2023-04-12T02:25:20;100420.72;;;1.92;100.00
61786;BME280;47692;53.714;11.372;2023-04-12T02:27:46;100420.78;;;1.99;100.00
61786;BME280;47692;53.714;11.372;2023-04-12T02:30:13;100405.38;;;2.05;100.00
61786;BME280;47692;53.714;11.372;2023-04-12T02:32:39;100401.06;;;2.04;100.00
61786;BME280;47692;53.714;11.372;2023-04-12T02:35:12;100398.53;;;2.07;100.00
61786;BME280;47692;53.714;11.372;2023-04-12T02:37:38;100395.06;;;2.05;100.00
61786;BME280;47692;53.714;11.372;2023-04-12T02:40:04;100397.63;;;2.00;100.00
61786;BME280;47692;53.714;11.372;2023-04-12T02:42:31;100387.34;;;2.02;100.00
61786;BME280;47692;53.714;11.372;2023-04-12T02:44:56;100386.41;;;1.93;100.00
61786;BME280;47692;53.714;11.372;2023-04-12T02:47:22;100382.97;;;1.91;100.00
61786;BME280;47692;53.714;11.372;2023-04-12T02:49:52;100370.03;;;1.85;100.00
61786;BME280;47692;53.714;11.372;2023-04-12T02:52:17;100369.19;;;1.83;100.00
61786;BME280;47692;53.714;11.372;2023-04-12T02:54:43;100366.56;;;1.77;100.00
61786;BME280;47692;53.714;11.372;2023-04-12T02:57:08;100373.41;;;1.72;100.00
61786;BME280;47692;53.714;11.372;2023-04-12T02:59:35;100367.34;;;1.70;100.00
61786;BME280;47692;53.714;11.372;2023-04-12T03:02:00;100362.19;;;1.67;100.00
61786;BME280;47692;53.714;11.372;2023-04-12T03:04:26;100356.16;;;1.65;100.00
61786;BME280;47692;53.714;11.372;2023-04-12T03:06:55;100354.50;;;1.71;100.00
61786;BME280;47692;53.714;11.372;2023-04-12T03:09:21;100351.97;;;1.76;100.00
61786;BME280;47692;53.714;11.372;2023-04-12T03:11:46;100350.28;;;1.78;100.00
61786;BME280;47692;53.714;11.372;2023-04-12T03:14:12;100343.41;;;1.80;100.00
61786;BME280;47692;53.714;11.372;2023-04-12T03:16:37;100341.72;;;1.79;100.00
61786;BME280;47692;53.714;11.372;2023-04-12T03:19:03;100339.97;;;1.81;100.00
61786;BME280;47692;53.714;11.372;2023-04-12T03:21:30;100333.13;;;1.83;100.00
61786;BME280;47692;53.714;11.372;2023-04-12T03:23:55;100335.75;;;1.88;100.00
61786;BME280;47692;53.714;11.372;2023-04-12T03:26:20;100327.16;;;1.89;100.00
61786;BME280;47692;53.714;11.372;2023-04-12T03:28:46;100323.75;;;1.90;100.00
61786;BME280;47692;53.714;11.372;2023-04-12T03:31:12;100320.28;;;1.85;100.00
61786;BME280;47692;53.714;11.372;2023-04-12T03:33:37;100322.88;;;1.89;100.00
61786;BME280;47692;53.714;11.372;2023-04-12T03:36:04;100322.00;;;1.87;100.00
61786;BME280;47692;53.714;11.372;2023-04-12T03:38:29;100318.59;;;1.88;100.00
61786;BME280;47692;53.714;11.372;2023-04-12T03:40:55;100306.59;;;1.90;100.00
61786;BME280;47692;53.714;11.372;2023-04-12T03:43:20;100306.59;;;1.92;100.00
61786;BME280;47692;53.714;11.372;2023-04-12T03:45:46;100303.13;;;1.90;100.00
61786;BME280;47692;53.714;11.372;2023-04-12T03:48:12;100300.56;;;1.88;100.00
61786;BME280;47692;53.714;11.372;2023-04-12T03:50:37;100295.38;;;1.85;100.00
61786;BME280;47692;53.714;11.372;2023-04-12T03:53:11;100291.97;;;1.83;100.00
61786;BME280;47692;53.714;11.372;2023-04-12T03:55:37;100289.34;;;1.80;100.00
61786;BME280;47692;53.714;11.372;2023-04-12T03:58:03;100285.06;;;1.82;100.00
61786;BME280;47692;53.714;11.372;2023-04-12T04:00:29;100293.66;;;1.81;100.00
61786;BME280;47692;53.714;11.372;2023-04-12T04:02:56;100275.59;;;1.76;100.00
61786;BME280;47692;53.714;11.372;2023-04-12T04:05:30;100276.47;;;1.80;100.00
61786;BME280;47692;53.714;11.372;2023-04-12T04:07:56;100272.22;;;1.82;100.00
61786;BME280;47692;53.714;11.372;2023-04-12T04:10:29;100260.19;;;1.83;100.00
61786;BME280;47692;53.714;11.372;2023-04-12T04:12:55;100256.78;;;1.87;100.00
61786;BME280;47692;53.714;11.372;2023-04-12T04:15:20;100259.38;;;1.88;100.00
61786;BME280;47692;53.714;11.372;2023-04-12T04:17:46;100261.06;;;1.86;100.00
61786;BME280;47692;53.714;11.372;2023-04-12T04:20:13;100257.66;;;1.87;100.00
61786;BME280;47692;53.714;11.372;2023-04-12T04:22:39;100254.22;;;1.87;100.00
61786;BME280;47692;53.714;11.372;2023-04-12T04:25:05;100257.66;;;1.87;100.00
61786;BME280;47692;53.714;11.372;2023-04-12T04:27:30;100248.22;;;1.91;100.00
61786;BME280;47692;53.714;11.372;2023-04-12T04:29:58;100247.41;;;1.97;100.00
61786;BME280;47692;53.714;11.372;2023-04-12T04:32:27;100249.94;;;1.95;100.00
61786;BME280;47692;53.714;11.372;2023-04-12T04:34:54;100254.28;;;2.01;100.00
61786;BME280;47692;53.714;11.372;2023-04-12T04:37:20;100244.88;;;2.06;100.00
61786;BME280;47692;53.714;11.372;2023-04-12T04:39:45;100234.59;;;2.09;100.00
61786;BME280;47692;53.714;11.372;2023-04-12T04:42:10;100225.16;;;2.14;100.00
61786;BME280;47692;53.714;11.372;2023-04-12T04:44:36;100233.78;;;2.18;100.00
61786;BME280;47692;53.714;11.372;2023-04-12T04:47:01;100225.16;;;2.19;100.00
61786;BME280;47692;53.714;11.372;2023-04-12T04:49:27;100225.19;;;2.23;100.00
61786;BME280;47692;53.714;11.372;2023-04-12T04:51:53;100229.50;;;2.29;100.00
61786;BME280;47692;53.714;11.372;2023-04-12T04:54:18;100220.06;;;2.36;100.00
61786;BME280;47692;53.714;11.372;2023-04-12T04:56:43;100219.25;;;2.41;100.00
61786;BME280;47692;53.714;11.372;2023-04-12T04:59:09;100214.97;;;2.51;100.00
61786;BME280;47692;53.714;11.372;2023-04-12T05:01:34;100204.69;;;2.57;100.00
61786;BME280;47692;53.714;11.372;2023-04-12T05:04:01;100199.53;;;2.64;100.00
61786;BME280;47692;53.714;11.372;2023-04-12T05:06:26;100191.78;;;2.67;100.00
61786;BME280;47692;53.714;11.372;2023-04-12T05:08:52;100196.09;;;2.71;100.00
61786;BME280;47692;53.714;11.372;2023-04-12T05:11:18;100189.22;;;2.74;100.00
61786;BME280;47692;53.714;11.372;2023-04-12T05:13:43;100188.38;;;2.79;100.00
61786;BME280;47692;53.714;11.372;2023-04-12T05:16:09;100184.09;;;2.82;100.00
61786;BME280;47692;53.714;11.372;2023-04-12T05:18:35;100180.63;;;2.88;100.00
61786;BME280;47692;53.714;11.372;2023-04-12T05:21:02;100177.22;;;2.94;100.00
61786;BME280;47692;53.714;11.372;2023-04-12T05:23:28;100166.88;;;3.01;100.00
61786;BME280;47692;53.714;11.372;2023-04-12T05:25:53;100170.31;;;3.08;100.00
61786;BME280;47692;53.714;11.372;2023-04-12T05:28:19;100158.25;;;3.13;100.00
61786;BME280;47692;53.714;11.372;2023-04-12T05:30:45;100150.50;;;3.19;100.00
61786;BME280;47692;53.714;11.372;2023-04-12T05:33:10;100153.09;;;3.26;100.00
61786;BME280;47692;53.714;11.372;2023-04-12T05:35:35;100141.91;;;3.31;100.00
61786;BME280;47692;53.714;11.372;2023-04-12T05:38:01;100142.75;;;3.38;100.00
61786;BME280;47692;53.714;11.372;2023-04-12T05:40:26;100142.72;;;3.44;100.00
61786;BME280;47692;53.714;11.372;2023-04-12T05:42:52;100143.56;;;3.52;100.00
61786;BME280;47692;53.714;11.372;2023-04-12T05:45:18;100142.69;;;3.60;100.00
61786;BME280;47692;53.714;11.372;2023-04-12T05:47:43;100137.50;;;3.63;100.00
61786;BME280;47692;53.714;11.372;2023-04-12T05:50:09;100129.75;;;3.66;100.00
61786;BME280;47692;53.714;11.372;2023-04-12T05:52:35;100123.72;;;3.73;100.00
61786;BME280;47692;53.714;11.372;2023-04-12T05:55:01;100124.53;;;3.81;100.00
61786;BME280;47692;53.714;11.372;2023-04-12T05:57:26;100120.19;;;3.86;100.00
61786;BME280;47692;53.714;11.372;2023-04-12T05:59:51;100115.88;;;3.92;100.00
61786;BME280;47692;53.714;11.372;2023-04-12T06:02:17;100110.66;;;3.96;100.00
61786;BME280;47692;53.714;11.372;2023-04-12T06:04:42;100120.13;;;4.02;100.00
61786;BME280;47692;53.714;11.372;2023-04-12T06:07:08;100118.34;;;4.10;100.00
61786;BME280;47692;53.714;11.372;2023-04-12T06:09:34;100111.44;;;4.15;100.00
61786;BME280;47692;53.714;11.372;2023-04-12T06:11:59;100101.03;;;4.25;100.00
61786;BME280;47692;53.714;11.372;2023-04-12T06:14:24;100103.56;;;4.35;100.00
61786;BME280;47692;53.714;11.372;2023-04-12T06:16:50;100087.97;;;4.45;100.00
61786;BME280;47692;53.714;11.372;2023-04-12T06:19:15;100087.03;;;4.53;100.00
61786;BME280;47692;53.714;11.372;2023-04-12T06:21:41;100090.44;;;4.62;100.00
61786;BME280;47692;53.714;11.372;2023-04-12T06:24:06;100085.19;;;4.68;100.00
61786;BME280;47692;53.714;11.372;2023-04-12T06:26:32;100083.41;;;4.76;100.00
61786;BME280;47692;53.714;11.372;2023-04-12T06:28:57;100077.34;;;4.79;99.59
61786;BME280;47692;53.714;11.372;2023-04-12T06:31:22;100078.16;;;4.85;98.46
61786;BME280;47692;53.714;11.372;2023-04-12T06:33:48;100074.63;;;4.93;97.27
61786;BME280;47692;53.714;11.372;2023-04-12T06:36:14;100065.03;;;5.04;96.35
61786;BME280;47692;53.714;11.372;2023-04-12T06:38:41;100068.41;;;5.09;95.04
61786;BME280;47692;53.714;11.372;2023-04-12T06:41:06;100070.91;;;5.20;95.33
61786;BME280;47692;53.714;11.372;2023-04-12T06:43:32;100055.31;;;5.25;94.27
61786;BME280;47692;53.714;11.372;2023-04-12T06:45:57;100050.09;;;5.31;93.63
61786;BME280;47692;53.714;11.372;2023-04-12T06:48:22;100046.53;;;5.38;92.55
61786;BME280;47692;53.714;11.372;2023-04-12T06:50:48;100049.88;;;5.46;92.40
61786;BME280;47692;53.714;11.372;2023-04-12T06:53:13;100041.19;;;5.50;92.18
61786;BME280;47692;53.714;11.372;2023-04-12T06:55:39;100041.91;;;5.62;92.24
61786;BME280;47692;53.714;11.372;2023-04-12T06:58:05;100040.94;;;5.72;92.20
61786;BME280;47692;53.714;11.372;2023-04-12T07:00:30;100042.56;;;5.79;92.02
61786;BME280;47692;53.714;11.372;2023-04-12T07:02:56;100042.47;;;5.86;90.50
61786;BME280;47692;53.714;11.372;2023-04-12T07:05:21;100027.66;;;5.94;91.21
61786;BME280;47692;53.714;11.372;2023-04-12T07:07:46;100031.00;;;6.04;90.50
61786;BME280;47692;53.714;11.372;2023-04-12T07:10:12;100023.97;;;6.10;90.01
61786;BME280;47692;53.714;11.372;2023-04-12T07:12:37;100012.59;;;6.21;88.78
61786;BME280;47692;53.714;11.372;2023-04-12T07:15:03;100019.41;;;6.28;88.37
61786;BME280;47692;53.714;11.372;2023-04-12T07:17:28;100026.16;;;6.38;88.08
61786;BME280;47692;53.714;11.372;2023-04-12T07:19:53;100012.19;;;6.45;86.43
61786;BME280;47692;53.714;11.372;2023-04-12T07:22:19;99999.94;;;6.54;86.41
61786;BME280;47692;53.714;11.372;2023-04-12T07:24:44;99999.84;;;6.60;85.61
61786;BME280;47692;53.714;11.372;2023-04-12T07:27:10;99985.88;;;6.67;85.11
61786;BME280;47692;53.714;11.372;2023-04-12T07:29:35;99980.53;;;6.76;85.53
61786;BME280;47692;53.714;11.372;2023-04-12T07:32:01;99981.22;;;6.86;83.61
61786;BME280;47692;53.714;11.372;2023-04-12T07:34:27;99980.28;;;6.89;82.26
61786;BME280;47692;53.714;11.372;2023-04-12T07:36:52;99979.22;;;6.99;82.87
61786;BME280;47692;53.714;11.372;2023-04-12T07:39:17;99979.09;;;7.05;82.70
61786;BME280;47692;53.714;11.372;2023-04-12T07:41:43;99988.31;;;7.20;84.12
61786;BME280;47692;53.714;11.372;2023-04-12T07:44:10;99968.22;;;7.30;81.75
61786;BME280;47692;53.714;11.372;2023-04-12T07:46:36;99969.63;;;7.45;81.38
61786;BME280;47692;53.714;11.372;2023-04-12T07:49:01;99959.75;;;7.61;80.80
61786;BME280;47692;53.714;11.372;2023-04-12T07:51:26;99957.91;;;7.66;78.92
61786;BME280;47692;53.714;11.372;2023-04-12T07:53:51;99966.28;;;7.78;78.52
61786;BME280;47692;53.714;11.372;2023-04-12T07:56:17;99952.41;;;7.79;77.19
61786;BME280;47692;53.714;11.372;2023-04-12T07:58:42;99952.13;;;7.91;79.25
61786;BME280;47692;53.714;11.372;2023-04-12T08:01:07;99953.59;;;8.01;77.28
61786;BME280;47692;53.714;11.372;2023-04-12T08:03:33;99942.91;;;8.14;75.54
61786;BME280;47692;53.714;11.372;2023-04-12T08:05:58;99941.13;;;8.16;74.57
61786;BME280;47692;53.714;11.372;2023-04-12T08:08:24;99939.31;;;8.18;73.51
61786;BME280;47692;53.714;11.372;2023-04-12T08:10:50;99935.69;;;8.25;74.70
61786;BME280;47692;53.714;11.372;2023-04-12T08:13:16;99942.28;;;8.38;75.03
61786;BME280;47692;53.714;11.372;2023-04-12T08:15:41;99938.56;;;8.49;73.64
61786;BME280;47692;53.714;11.372;2023-04-12T08:18:07;99929.81;;;8.53;72.45
61786;BME280;47692;53.714;11.372;2023-04-12T08:20:33;99923.50;;;8.62;73.77
61786;BME280;47692;53.714;11.372;2023-04-12T08:22:59;99929.38;;;8.68;72.22
61786;BME280;47692;53.714;11.372;2023-04-12T08:25:24;99922.28;;;8.73;73.69
61786;BME280;47692;53.714;11.372;2023-04-12T08:27:50;99918.44;;;8.87;73.68
61786;BME280;47692;53.714;11.372;2023-04-12T08:30:16;99920.78;;;8.96;73.14
61786;BME280;47692;53.714;11.372;2023-04-12T08:32:42;99908.50;;;9.01;71.83
61786;BME280;47692;53.714;11.372;2023-04-12T08:35:07;99902.94;;;9.14;73.01
61786;BME280;47692;53.714;11.372;2023-04-12T08:37:33;99885.94;;;9.30;73.92
61786;BME280;47692;53.714;11.372;2023-04-12T08:40:03;99892.47;;;9.44;71.46
61786;BME280;47692;53.714;11.372;2023-04-12T08:42:30;99884.88;;;9.36;70.83
61786;BME280;47692;53.714;11.372;2023-04-12T08:44:56;99879.09;;;9.26;71.32
61786;BME280;47692;53.714;11.372;2023-04-12T08:47:22;99882.16;;;9.11;70.36
61786;BME280;47692;53.714;11.372;2023-04-12T08:49:47;99879.50;;;9.14;72.85
61786;BME280;47692;53.714;11.372;2023-04-12T08:52:13;99863.28;;;9.32;72.30
61786;BME280;47692;53.714;11.372;2023-04-12T08:54:38;99870.47;;;9.52;71.58
61786;BME280;47692;53.714;11.372;2023-04-12T08:57:05;99862.28;;;9.63;69.37
61786;BME280;47692;53.714;11.372;2023-04-12T08:59:33;99851.47;;;9.76;68.56
61786;BME280;47692;53.714;11.372;2023-04-12T09:01:59;99853.88;;;9.82;68.79
61786;BME280;47692;53.714;11.372;2023-04-12T09:04:24;99847.41;;;9.94;69.75
61786;BME280;47692;53.714;11.372;2023-04-12T09:06:54;99846.84;;;10.11;68.46
61786;BME280;47692;53.714;11.372;2023-04-12T09:09:40;99836.28;;;10.14;65.28
61786;BME280;47692;53.714;11.372;2023-04-12T09:12:06;99830.97;;;10.17;64.93
61786;BME280;47692;53.714;11.372;2023-04-12T09:14:32;99840.31;;;10.23;65.14
61786;BME280;47692;53.714;11.372;2023-04-12T09:16:57;99823.84;;;10.22;63.14
61786;BME280;47692;53.714;11.372;2023-04-12T09:19:33;99815.38;;;10.41;64.43
61786;BME280;47692;53.714;11.372;2023-04-12T09:21:59;99821.28;;;10.46;63.22
61786;BME280;47692;53.714;11.372;2023-04-12T09:24:25;99808.28;;;10.44;61.75
61786;BME280;47692;53.714;11.372;2023-04-12T09:27:05;99807.25;;;10.48;62.66
61786;BME280;47692;53.714;11.372;2023-04-12T09:29:31;99808.78;;;10.54;62.66
61786;BME280;47692;53.714;11.372;2023-04-12T09:32:05;99806.41;;;10.72;62.67
61786;BME280;47692;53.714;11.372;2023-04-12T09:34:32;99787.09;;;10.76;61.94
61786;BME280;47692;53.714;11.372;2023-04-12T09:37:11;99779.66;;;10.65;61.17
61786;BME280;47692;53.714;11.372;2023-04-12T09:39:37;99787.09;;;10.76;63.54
61786;BME280;47692;53.714;11.372;2023-04-12T09:42:09;99782.16;;;10.90;62.57
61786;BME280;47692;53.714;11.372;2023-04-12T09:44:35;99775.69;;;11.01;61.32
61786;BME280;47692;53.714;11.372;2023-04-12T09:47:01;99770.81;;;11.13;62.17
61786;BME280;47692;53.714;11.372;2023-04-12T09:49:41;99769.75;;;11.19;60.71
61786;BME280;47692;53.714;11.372;2023-04-12T09:52:09;99762.16;;;11.13;60.27
61786;BME280;47692;53.714;11.372;2023-04-12T09:54:46;99754.78;;;11.23;61.93
61786;BME280;47692;53.714;11.372;2023-04-12T09:57:16;99746.63;;;11.30;62.09
61786;BME280;47692;53.714;11.372;2023-04-12T09:59:43;99750.06;;;11.31;62.04
61786;BME280;47692;53.714;11.372;2023-04-12T10:02:16;99740.69;;;11.27;60.22
61786;BME280;47692;53.714;11.372;2023-04-12T10:04:41;99728.84;;;11.18;60.68
61786;BME280;47692;53.714;11.372;2023-04-12T10:07:07;99718.56;;;11.13;61.86
61786;BME280;47692;53.714;11.372;2023-04-12T10:09:33;99723.06;;;11.10;62.25
61786;BME280;47692;53.714;11.372;2023-04-12T10:12:00;99714.72;;;11.02;61.19
61786;BME280;47692;53.714;11.372;2023-04-12T10:14:27;99700.19;;;10.94;61.53
61786;BME280;47692;53.714;11.372;2023-04-12T10:16:58;99702.56;;;11.01;62.93
61786;BME280;47692;53.714;11.372;2023-04-12T10:19:25;99693.56;;;11.08;63.02
61786;BME280;47692;53.714;11.372;2023-04-12T10:21:51;99682.06;;;11.12;62.01
61786;BME280;47692;53.714;11.372;2023-04-12T10:24:17;99675.78;;;11.16;61.97
61786;BME280;47692;53.714;11.372;2023-04-12T10:26:42;99672.69;;;11.08;62.81
61786;BME280;47692;53.714;11.372;2023-04-12T10:29:30;99673.84;;;11.01;63.69
61786;BME280;47692;53.714;11.372;2023-04-12T10:31:58;99665.75;;;11.07;63.52
61786;BME280;47692;53.714;11.372;2023-04-12T10:34:42;99662.47;;;11.22;63.17
61786;BME280;47692;53.714;11.372;2023-04-12T10:37:07;99664.13;;;11.45;63.11
61786;BME280;47692;53.714;11.372;2023-04-12T10:39:44;99655.81;;;11.56;62.87
61786;BME280;47692;53.714;11.372;2023-04-12T10:42:19;99647.97;;;11.56;61.25
61786;BME280;47692;53.714;11.372;2023-04-12T10:44:49;99648.69;;;11.60;61.24
61786;BME280;47692;53.714;11.372;2023-04-12T10:47:57;99637.88;;;11.68;61.79
61786;BME280;47692;53.714;11.372;2023-04-12T10:50:32;99620.75;;;11.81;61.98
61786;BME280;47692;53.714;11.372;2023-04-12T10:55:41;99632.06;;;12.01;61.81
61786;BME280;47692;53.714;11.372;2023-04-12T10:58:08;99622.91;;;11.90;60.36
61786;BME280;47692;53.714;11.372;2023-04-12T11:03:21;99625.81;;;11.84;59.24
61786;BME280;47692;53.714;11.372;2023-04-12T11:06:03;99610.13;;;11.84;59.86
61786;BME280;47692;53.714;11.372;2023-04-12T11:08:29;99625.97;;;11.81;59.69
61786;BME280;47692;53.714;11.372;2023-04-12T11:11:02;99607.88;;;11.76;60.25
61786;BME280;47692;53.714;11.372;2023-04-12T11:13:33;99610.47;;;11.76;59.97
61786;BME280;47692;53.714;11.372;2023-04-12T11:16:02;99618.03;;;11.83;60.97
61786;BME280;47692;53.714;11.372;2023-04-12T11:18:29;99616.91;;;11.88;60.41
61786;BME280;47692;53.714;11.372;2023-04-12T11:20:57;99603.53;;;11.96;60.24
61786;BME280;47692;53.714;11.372;2023-04-12T11:23:23;99597.97;;;11.83;60.05
61786;BME280;47692;53.714;11.372;2023-04-12T11:25:49;99589.63;;;11.75;61.05
61786;BME280;47692;53.714;11.372;2023-04-12T11:28:16;99586.50;;;11.67;60.48
61786;BME280;47692;53.714;11.372;2023-04-12T11:30:56;99586.78;;;11.60;60.21
61786;BME280;47692;53.714;11.372;2023-04-12T11:33:36;99583.81;;;11.49;60.60
61786;BME280;47692;53.714;11.372;2023-04-12T11:36:06;99591.00;;;11.44;61.67
61786;BME280;47692;53.714;11.372;2023-04-12T11:38:34;99591.13;;;11.41;61.48
61786;BME280;47692;53.714;11.372;2023-04-12T11:41:01;99571.41;;;11.34;59.96
61786;BME280;47692;53.714;11.372;2023-04-12T11:43:26;99571.47;;;11.32;60.68
61786;BME280;47692;53.714;11.372;2023-04-12T11:45:58;99574.19;;;11.30;60.65
61786;BME280;47692;53.714;11.372;2023-04-12T11:48:26;99571.75;;;11.26;60.12
61786;BME280;47692;53.714;11.372;2023-04-12T11:50:52;99565.81;;;11.22;60.76
61786;BME280;47692;53.714;11.372;2023-04-12T11:53:17;99562.44;;;11.20;60.99
61786;BME280;47692;53.714;11.372;2023-04-12T11:55:50;99562.56;;;11.17;60.98
61786;BME280;47692;53.714;11.372;2023-04-12T11:58:16;99559.22;;;11.13;60.19
61786;BME280;47692;53.714;11.372;2023-04-12T12:00:43;99555.06;;;11.09;60.57
61786;BME280;47692;53.714;11.372;2023-04-12T12:03:09;99545.59;;;11.07;60.84
61786;BME280;47692;53.714;11.372;2023-04-12T12:05:37;99538.78;;;11.03;59.86
61786;BME280;47692;53.714;11.372;2023-04-12T12:08:03;99534.63;;;10.98;60.18
61786;BME280;47692;53.714;11.372;2023-04-12T12:10:32;99538.28;;;10.94;60.88
61786;BME280;47692;53.714;11.372;2023-04-12T12:13:01;99533.34;;;10.88;60.96
61786;BME280;47692;53.714;11.372;2023-04-12T12:15:30;99535.94;;;10.88;61.64
61786;BME280;47692;53.714;11.372;2023-04-12T12:17:56;99539.47;;;10.87;60.11
61786;BME280;47692;53.714;11.372;2023-04-12T12:20:22;99533.44;;;10.85;60.17
61786;BME280;47692;53.714;11.372;2023-04-12T12:22:49;99536.06;;;10.85;60.86
61786;BME280;47692;53.714;11.372;2023-04-12T12:25:17;99539.47;;;10.87;61.02
61786;BME280;47692;53.714;11.372;2023-04-12T12:27:42;99536.03;;;10.87;61.10
61786;BME280;47692;53.714;11.372;2023-04-12T12:30:15;99541.16;;;10.88;62.75
61786;BME280;47692;53.714;11.372;2023-04-12T12:32:41;99529.22;;;10.82;62.09
61786;BME280;47692;53.714;11.372;2023-04-12T12:35:08;99537.66;;;10.89;61.27
61786;BME280;47692;53.714;11.372;2023-04-12T12:37:34;99530.72;;;10.88;61.38
61786;BME280;47692;53.714;11.372;2023-04-12T12:40:03;99524.38;;;10.94;61.72
61786;BME280;47692;53.714;11.372;2023-04-12T12:42:36;99526.69;;;11.02;61.72
61786;BME280;47692;53.714;11.372;2023-04-12T12:45:02;99520.50;;;11.03;60.51
61786;BME280;47692;53.714;11.372;2023-04-12T12:47:29;99504.84;;;11.03;61.06
61786;BME280;47692;53.714;11.372;2023-04-12T12:49:55;99508.50;;;10.98;63.16
61786;BME280;47692;53.714;11.372;2023-04-12T12:52:20;99514.66;;;10.97;61.87
61786;BME280;47692;53.714;11.372;2023-04-12T12:54:46;99507.06;;;11.12;60.48
61786;BME280;47692;53.714;11.372;2023-04-12T12:57:11;99495.06;;;11.27;61.43
61786;BME280;47692;53.714;11.372;2023-04-12T12:59:36;99495.34;;;11.40;63.12
61786;BME280;47692;53.714;11.372;2023-04-12T13:02:02;99502.28;;;11.41;61.63